createdAt,value
2022-09-09T00:02:03.904Z,7.10
2022-09-09T00:04:40.595Z,7.43
2022-09-09T00:07:24.683Z,7.65
2022-09-09T00:10:06.270Z,7.50
2022-09-09T00:12:51.685Z,7.60
2022-09-09T00:15:31.860Z,7.38
2022-09-09T00:18:03.586Z,7.88
2022-09-09T00:20:52.374Z,8.10
2022-09-09T00:23:31.585Z,7.78
2022-09-09T00:26:17.327Z,7.93
2022-09-09T00:29:00.211Z,7.57
2022-09-09T00:31:31.424Z,7.80
2022-09-09T00:34:17.724Z,7.72
2022-09-09T00:36:46.535Z,8.65
2022-09-09T00:39:53.130Z,8.40
2022-09-09T00:42:44.344Z,7.75
2022-09-09T00:45:43.598Z,8.25
2022-09-09T00:48:17.594Z,8.65
2022-09-09T00:50:58.306Z,8.90
2022-09-09T00:53:30.991Z,8.70
2022-09-09T00:56:25.138Z,8.55
2022-09-09T00:59:20.508Z,8.57
2022-09-09T01:01:47.399Z,9.20
2022-09-09T01:04:30.000Z,9.20
2022-09-09T01:07:04.858Z,8.82
2022-09-09T01:09:57.004Z,9.27
2022-09-09T01:12:32.881Z,8.45
2022-09-09T01:15:17.766Z,8.95
2022-09-09T01:18:11.429Z,8.90
2022-09-09T01:21:12.769Z,8.77
2022-09-09T01:24:05.413Z,9.00
2022-09-09T01:26:43.068Z,9.05
2022-09-09T01:29:19.383Z,9.13
2022-09-09T01:31:56.996Z,8.82
2022-09-09T01:34:27.974Z,9.55
2022-09-09T01:37:06.745Z,9.10
2022-09-09T01:39:35.377Z,9.32
2022-09-09T01:42:08.957Z,9.25
2022-09-09T01:44:37.163Z,8.98
2022-09-09T01:47:06.300Z,8.68
2022-09-09T01:49:36.321Z,9.23
2022-09-09T01:52:11.087Z,9.25
2022-09-09T01:54:41.034Z,9.95
2022-09-09T01:57:36.275Z,9.38
2022-09-09T02:00:12.057Z,9.65
2022-09-09T02:03:19.159Z,9.48
2022-09-09T02:06:10.437Z,10.00
2022-09-09T02:08:51.195Z,9.57
2022-09-09T02:11:23.890Z,9.65
2022-09-09T02:14:17.634Z,10.38
2022-09-09T02:17:11.093Z,9.73
2022-09-09T02:20:09.566Z,10.00
2022-09-09T02:22:50.452Z,9.75
2022-09-09T02:25:22.981Z,9.80
2022-09-09T02:27:52.700Z,9.93
2022-09-09T02:30:21.468Z,10.50
2022-09-09T02:33:00.212Z,10.18
2022-09-09T02:36:02.703Z,10.52
2022-09-09T02:38:36.262Z,9.40
2022-09-09T02:41:09.702Z,10.27
2022-09-09T02:43:38.172Z,10.18
2022-09-09T02:46:32.741Z,10.40
2022-09-09T02:49:04.560Z,10.82
2022-09-09T02:51:53.691Z,10.15
2022-09-09T02:54:40.081Z,10.98
2022-09-09T02:57:24.331Z,11.00
2022-09-09T02:59:53.094Z,10.95
2022-09-09T03:02:20.364Z,10.65
2022-09-09T03:04:54.692Z,10.20
2022-09-09T03:07:22.025Z,10.70
2022-09-09T03:09:51.908Z,11.27
2022-09-09T03:12:18.796Z,11.32
2022-09-09T03:14:46.930Z,11.50
2022-09-09T03:17:14.625Z,11.73
2022-09-09T03:19:50.537Z,11.00
2022-09-09T03:22:17.579Z,11.38
2022-09-09T03:24:47.926Z,11.30
2022-09-09T03:27:18.444Z,11.68
2022-09-09T03:29:46.134Z,11.05
2022-09-09T03:32:19.417Z,11.80
2022-09-09T03:34:50.555Z,11.67
2022-09-09T03:37:18.790Z,10.27
2022-09-09T03:39:46.526Z,10.48
2022-09-09T03:42:19.710Z,11.02
2022-09-09T03:44:53.488Z,10.50
2022-09-09T03:47:25.027Z,11.23
2022-09-09T03:49:56.522Z,11.10
2022-09-09T03:52:25.998Z,10.20
2022-09-09T03:54:55.391Z,10.07
2022-09-09T03:57:22.685Z,10.32
2022-09-09T03:59:50.885Z,10.80
2022-09-09T04:02:18.299Z,10.23
2022-09-09T04:04:45.154Z,10.05
2022-09-09T04:07:12.892Z,10.25
2022-09-09T04:09:40.499Z,9.82
2022-09-09T04:12:07.744Z,9.70
2022-09-09T04:14:35.358Z,9.75
2022-09-09T04:17:07.149Z,9.77
2022-09-09T04:19:34.247Z,9.70
2022-09-09T04:22:02.067Z,9.63
2022-09-09T04:24:31.096Z,9.20
2022-09-09T04:26:59.888Z,9.07
2022-09-09T04:29:26.991Z,9.48
2022-09-09T04:31:54.355Z,9.60
2022-09-09T04:34:21.258Z,9.25
2022-09-09T04:36:48.456Z,8.70
2022-09-09T04:39:15.606Z,8.73
2022-09-09T04:41:42.529Z,8.75
2022-09-09T04:44:13.635Z,8.27
2022-09-09T04:46:43.261Z,7.93
2022-09-09T04:49:15.217Z,8.70
2022-09-09T04:51:43.970Z,8.13
2022-09-09T04:54:11.200Z,7.85
2022-09-09T04:56:44.400Z,8.10
2022-09-09T04:59:12.271Z,8.15
2022-09-09T05:01:47.676Z,7.80
2022-09-09T05:04:18.113Z,7.57
2022-09-09T05:06:45.253Z,7.97
2022-09-09T05:09:13.290Z,7.95
2022-09-09T05:11:40.187Z,7.35
2022-09-09T05:14:16.226Z,7.75
2022-09-09T05:16:48.379Z,7.57
2022-09-09T05:19:20.090Z,7.43
2022-09-09T05:21:58.379Z,7.35
2022-09-09T05:24:34.295Z,7.72
2022-09-09T05:27:03.352Z,7.15
2022-09-09T05:29:30.564Z,6.60
2022-09-09T05:32:00.201Z,7.18
2022-09-09T05:34:27.038Z,7.28
2022-09-09T05:36:54.697Z,7.10
2022-09-09T05:39:26.274Z,6.55
2022-09-09T05:41:53.174Z,7.25
2022-09-09T05:44:20.479Z,6.82
2022-09-09T05:46:48.585Z,7.07
2022-09-09T05:49:18.302Z,6.88
2022-09-09T05:51:45.740Z,7.70
2022-09-09T05:54:17.556Z,6.82
2022-09-09T05:56:51.975Z,7.80
2022-09-09T05:59:19.733Z,7.03
2022-09-09T06:01:48.059Z,7.00
2022-09-09T06:04:25.880Z,6.95
2022-09-09T06:06:58.302Z,7.20
2022-09-09T06:09:26.154Z,7.10
2022-09-09T06:11:53.070Z,7.45
2022-09-09T06:14:22.825Z,7.00
2022-09-09T06:16:51.948Z,7.10
2022-09-09T06:19:22.052Z,7.25
2022-09-09T06:21:50.066Z,7.28
2022-09-09T06:24:18.450Z,7.28
2022-09-09T06:26:46.902Z,7.18
2022-09-09T06:29:19.601Z,7.00
2022-09-09T06:31:46.641Z,7.30
2022-09-09T06:34:17.101Z,7.20
2022-09-09T06:36:48.528Z,7.85
2022-09-09T06:39:16.512Z,8.00
2022-09-09T06:41:44.173Z,7.82
2022-09-09T06:44:44.111Z,8.10
2022-09-09T06:47:16.488Z,8.52
2022-09-09T06:49:48.244Z,7.45
2022-09-09T06:52:15.574Z,8.30
2022-09-09T06:54:44.063Z,9.70
2022-09-09T07:00:01.335Z,8.48
2022-09-09T07:02:28.281Z,9.20
2022-09-09T07:04:55.177Z,9.20
2022-09-09T07:07:22.044Z,8.95
2022-09-09T07:09:50.305Z,9.13
2022-09-09T07:12:17.600Z,9.13
2022-09-09T07:14:52.222Z,10.30
2022-09-09T07:17:20.589Z,10.35
2022-09-09T07:19:48.581Z,9.82
2022-09-09T07:22:17.174Z,10.13
2022-09-09T07:24:46.720Z,10.10
2022-09-09T07:27:15.129Z,10.48
2022-09-09T07:29:42.566Z,10.57
2022-09-09T07:32:10.581Z,10.27
2022-09-09T07:34:38.650Z,10.65
2022-09-09T07:37:06.310Z,10.73
2022-09-09T07:39:34.187Z,11.52
2022-09-09T07:42:02.194Z,11.68
2022-09-09T07:44:33.278Z,11.00
2022-09-09T07:47:10.970Z,11.90
2022-09-09T07:49:43.471Z,12.23
2022-09-09T07:52:14.953Z,12.60
2022-09-09T07:54:48.486Z,11.90
2022-09-09T07:57:19.518Z,11.75
2022-09-09T07:59:51.912Z,12.18
2022-09-09T08:02:19.609Z,12.75
2022-09-09T08:04:49.804Z,12.73
2022-09-09T08:07:21.006Z,12.13
2022-09-09T08:09:53.309Z,12.50
2022-09-09T08:12:25.153Z,11.55
2022-09-09T08:14:55.756Z,12.80
2022-09-09T08:17:25.331Z,12.93
2022-09-09T08:19:52.401Z,12.32
2022-09-09T08:22:25.439Z,14.48
2022-09-09T08:24:53.490Z,13.80
2022-09-09T08:27:25.027Z,13.13
2022-09-09T08:29:57.563Z,13.70
2022-09-09T08:32:25.766Z,13.23
2022-09-09T08:34:54.628Z,13.35
2022-09-09T08:37:23.956Z,13.90
2022-09-09T08:39:56.306Z,14.23
2022-09-09T08:42:35.551Z,14.98
2022-09-09T08:46:12.940Z,14.75
2022-09-09T08:49:10.923Z,14.88
2022-09-09T08:51:41.421Z,15.20
2022-09-09T08:54:11.002Z,15.45
2022-09-09T08:56:40.370Z,15.10
2022-09-09T08:59:14.882Z,14.63
2022-09-09T09:02:11.353Z,16.10
2022-09-09T09:04:47.800Z,16.35
2022-09-09T09:07:32.697Z,16.85
2022-09-09T09:10:40.571Z,17.13
2022-09-09T09:13:28.815Z,17.20
2022-09-09T09:16:21.472Z,17.52
2022-09-09T09:18:50.195Z,18.48
2022-09-09T09:21:41.685Z,18.13
2022-09-09T09:24:32.197Z,18.40
2022-09-09T09:27:14.541Z,19.05
2022-09-09T09:30:10.819Z,18.55
2022-09-09T09:32:42.382Z,18.63
2022-09-09T09:35:14.963Z,18.70
2022-09-09T09:40:59.701Z,18.10
2022-09-09T09:43:40.710Z,17.65
2022-09-09T09:46:26.758Z,18.75
2022-09-09T09:49:01.955Z,17.60
2022-09-09T09:51:33.391Z,18.38
2022-09-09T09:54:44.803Z,18.45
2022-09-09T09:57:13.522Z,18.40
2022-09-09T09:59:49.579Z,19.40
2022-09-09T10:02:27.672Z,19.05
2022-09-09T10:05:14.288Z,18.80
2022-09-09T10:08:03.348Z,19.80
2022-09-09T10:11:22.111Z,19.67
2022-09-09T10:14:25.384Z,20.00
2022-09-09T10:17:14.230Z,19.90
2022-09-09T10:19:47.222Z,20.05
2022-09-09T10:22:30.994Z,21.13
2022-09-09T10:25:30.921Z,20.92
2022-09-09T10:28:26.082Z,23.17
2022-09-09T10:31:16.307Z,23.63
2022-09-09T10:34:22.341Z,23.15
2022-09-09T10:36:52.001Z,24.20
2022-09-09T10:39:39.123Z,24.40
2022-09-09T10:42:18.207Z,24.90
2022-09-09T10:45:24.799Z,25.67
2022-09-09T10:47:52.460Z,24.45
2022-09-09T10:50:57.235Z,26.15
2022-09-09T10:53:27.198Z,27.48
2022-09-09T10:56:01.680Z,25.60
2022-09-09T10:58:33.938Z,27.08
2022-09-09T11:01:08.845Z,26.15
2022-09-09T11:03:41.792Z,28.95
2022-09-09T11:06:21.935Z,29.38
2022-09-09T11:08:53.777Z,29.40
2022-09-09T11:11:40.375Z,26.25
2022-09-09T11:14:35.313Z,28.10
2022-09-09T11:17:26.622Z,29.42
2022-09-09T11:19:53.692Z,28.10
2022-09-09T11:22:28.560Z,27.13
2022-09-09T11:24:58.486Z,28.05
2022-09-09T11:27:32.913Z,27.20
2022-09-09T11:30:51.280Z,27.23
2022-09-09T11:33:17.568Z,26.40
2022-09-09T11:36:11.149Z,26.75
2022-09-09T11:38:58.503Z,26.58
2022-09-09T11:41:41.850Z,26.98
2022-09-09T11:44:21.711Z,27.58
2022-09-09T11:46:52.446Z,26.48
2022-09-09T11:49:50.625Z,27.42
2022-09-09T11:52:38.803Z,27.98
2022-09-09T11:55:34.863Z,27.98
2022-09-09T11:58:24.915Z,27.83
2022-09-09T12:00:55.688Z,29.67
2022-09-09T12:03:50.354Z,29.52
2022-09-09T12:06:33.830Z,28.92
2022-09-09T12:12:25.237Z,30.67
2022-09-09T12:15:08.181Z,30.17
2022-09-09T12:17:51.574Z,36.13
2022-09-09T12:20:38.165Z,30.45
2022-09-09T12:23:32.451Z,31.02
2022-09-09T12:26:46.139Z,30.63
2022-09-09T12:29:31.735Z,30.58
2022-09-09T12:32:20.987Z,29.70
2022-09-09T12:35:21.426Z,31.10
2022-09-09T12:37:58.177Z,31.25
2022-09-09T12:40:32.086Z,31.98
2022-09-09T12:43:08.463Z,32.67
2022-09-09T12:45:38.067Z,30.30
2022-09-09T12:48:18.201Z,31.95
2022-09-09T12:50:58.138Z,32.30
2022-09-09T12:53:42.450Z,31.33
2022-09-09T12:56:24.941Z,31.08
2022-09-09T12:59:02.630Z,31.75
2022-09-09T13:01:39.616Z,32.38
2022-09-09T13:04:29.396Z,32.47
2022-09-09T13:07:08.752Z,33.97
2022-09-09T13:09:42.044Z,32.78
2022-09-09T13:12:20.909Z,31.08
2022-09-09T13:14:57.148Z,31.67
2022-09-09T13:17:30.118Z,32.95
2022-09-09T13:20:00.122Z,33.53
2022-09-09T13:22:38.471Z,32.15
2022-09-09T13:25:14.480Z,33.65
2022-09-09T13:27:57.902Z,33.40
2022-09-09T13:30:41.524Z,32.28
2022-09-09T13:33:14.539Z,32.33
2022-09-09T13:35:54.852Z,30.73
2022-09-09T13:38:27.091Z,30.98
2022-09-09T13:41:05.693Z,30.98
2022-09-09T13:43:45.877Z,31.20
2022-09-09T13:46:33.624Z,28.90
2022-09-09T13:49:07.108Z,30.92
2022-09-09T13:52:08.403Z,31.33
2022-09-09T13:54:50.781Z,31.45
2022-09-09T13:57:21.503Z,29.13
2022-09-09T14:00:23.135Z,29.00
2022-09-09T14:02:52.059Z,27.58
2022-09-09T14:05:21.712Z,27.63
2022-09-09T14:07:53.204Z,27.63
2022-09-09T14:10:26.793Z,28.45
2022-09-09T14:12:54.626Z,29.05
2022-09-09T14:15:23.090Z,28.63
2022-09-09T14:17:57.612Z,27.85
2022-09-09T14:20:26.699Z,29.80
2022-09-09T14:23:03.320Z,27.52
2022-09-09T14:25:40.410Z,28.58
2022-09-09T14:28:20.449Z,28.40
2022-09-09T14:31:00.872Z,27.98
2022-09-09T14:33:43.428Z,27.30
2022-09-09T14:36:11.924Z,27.30
2022-09-09T14:41:33.189Z,27.83
2022-09-09T14:44:00.870Z,28.42
2022-09-09T14:46:28.644Z,30.60
2022-09-09T14:48:56.034Z,29.33
2022-09-09T14:51:44.530Z,30.15
2022-09-09T14:54:12.898Z,29.08
2022-09-09T14:56:42.067Z,30.27
2022-09-09T14:59:10.110Z,29.15
2022-09-09T15:01:45.553Z,28.90
2022-09-09T15:04:28.278Z,28.70
2022-09-09T15:06:55.699Z,30.13
2022-09-09T15:09:25.467Z,28.25
2022-09-09T15:12:04.055Z,28.50
2022-09-09T15:14:34.191Z,29.90
2022-09-09T15:17:04.058Z,28.83
2022-09-09T15:19:34.482Z,29.08
2022-09-09T15:22:01.565Z,29.10
2022-09-09T15:24:29.562Z,30.58
2022-09-09T15:27:01.494Z,29.90
2022-09-09T15:29:31.154Z,29.08
2022-09-09T15:32:02.507Z,28.95
2022-09-09T15:34:30.985Z,29.00
2022-09-09T15:37:03.727Z,30.75
2022-09-09T15:39:35.617Z,29.73
2022-09-09T15:42:05.807Z,29.90
2022-09-09T15:44:40.994Z,30.05
2022-09-09T15:47:08.960Z,29.25
2022-09-09T15:49:42.606Z,29.90
2022-09-09T15:52:12.617Z,29.83
2022-09-09T15:54:42.649Z,29.23
2022-09-09T15:57:18.447Z,29.50
2022-09-09T15:59:46.576Z,29.10
2022-09-09T16:02:23.992Z,28.95
2022-09-09T16:05:04.528Z,28.30
2022-09-09T16:07:31.620Z,29.10
2022-09-09T16:09:59.498Z,28.85
2022-09-09T16:12:28.889Z,29.52
2022-09-09T16:14:59.050Z,28.58
2022-09-09T16:17:27.005Z,27.88
2022-09-09T16:19:55.433Z,29.40
2022-09-09T16:22:29.055Z,28.08
2022-09-09T16:27:46.112Z,28.02
2022-09-09T16:30:19.312Z,27.42
2022-09-09T16:32:51.399Z,27.20
2022-09-09T16:35:24.243Z,28.00
2022-09-09T16:37:54.049Z,28.58
2022-09-09T16:40:21.602Z,27.45
2022-09-09T16:42:49.769Z,27.63
2022-09-09T16:45:17.824Z,27.55
2022-09-09T16:47:49.682Z,26.98
2022-09-09T16:50:21.361Z,26.98
2022-09-09T16:52:50.041Z,27.05
2022-09-09T16:55:21.503Z,28.52
2022-09-09T16:57:51.860Z,28.13
2022-09-09T17:00:38.290Z,26.08
2022-09-09T17:03:07.106Z,27.63
2022-09-09T17:05:36.943Z,28.13
2022-09-09T17:08:03.767Z,27.83
2022-09-09T17:10:31.034Z,29.20
2022-09-09T17:12:57.848Z,27.27
2022-09-09T17:15:24.834Z,27.20
2022-09-09T17:17:54.679Z,27.42
2022-09-09T17:20:21.583Z,25.90
2022-09-09T17:22:48.954Z,25.73
2022-09-09T17:25:17.900Z,26.00
2022-09-09T17:27:45.627Z,27.00
2022-09-09T17:30:17.379Z,25.08
2022-09-09T17:32:45.600Z,25.75
2022-09-09T17:35:15.658Z,25.75
2022-09-09T17:37:44.336Z,26.55
2022-09-09T17:40:21.698Z,26.73
2022-09-09T17:42:50.191Z,26.48
2022-09-09T17:45:18.180Z,26.70
2022-09-09T17:47:51.550Z,25.75
2022-09-09T17:50:19.634Z,27.02
2022-09-09T17:52:46.560Z,27.25
2022-09-09T17:58:00.959Z,26.60
2022-09-09T18:00:30.739Z,25.52
2022-09-09T18:02:58.578Z,27.38
2022-09-09T18:05:25.676Z,26.38
2022-09-09T18:07:53.854Z,26.92
2022-09-09T18:10:22.540Z,27.35
2022-09-09T18:12:50.156Z,25.77
2022-09-09T18:15:33.414Z,27.52
2022-09-09T18:18:09.444Z,27.48
2022-09-09T18:20:36.446Z,25.60
2022-09-09T18:23:10.571Z,26.13
2022-09-09T18:25:45.012Z,25.63
2022-09-09T18:28:12.378Z,25.58
2022-09-09T18:30:40.634Z,24.42
2022-09-09T18:33:08.065Z,24.65
2022-09-09T18:35:37.346Z,25.25
2022-09-09T18:38:04.830Z,25.15
2022-09-09T18:40:32.348Z,24.85
2022-09-09T18:42:59.983Z,25.80
2022-09-09T18:45:26.853Z,23.70
2022-09-09T18:47:53.876Z,24.45
2022-09-09T18:50:21.293Z,23.65
2022-09-09T18:52:49.394Z,24.20
2022-09-09T18:55:16.548Z,24.15
2022-09-09T18:57:43.736Z,23.85
2022-09-09T19:00:13.431Z,24.02
2022-09-09T19:02:40.274Z,23.50
2022-09-09T19:05:11.114Z,23.30
2022-09-09T19:07:41.396Z,21.92
2022-09-09T19:10:10.939Z,21.48
2022-09-09T19:12:40.254Z,21.58
2022-09-09T19:15:07.584Z,21.42
2022-09-09T19:17:35.817Z,21.42
2022-09-09T19:20:04.155Z,21.02
2022-09-09T19:22:34.684Z,20.38
2022-09-09T19:25:03.546Z,21.58
2022-09-09T19:27:30.928Z,20.42
2022-09-09T19:29:58.007Z,21.10
2022-09-09T19:32:52.317Z,21.70
2022-09-09T19:35:21.317Z,20.40
2022-09-09T19:37:48.160Z,20.35
2022-09-09T19:40:16.019Z,20.20
2022-09-09T19:42:49.533Z,19.83
2022-09-09T19:45:17.537Z,20.17
2022-09-09T19:47:44.386Z,19.58
2022-09-09T19:50:11.838Z,19.45
2022-09-09T19:52:38.896Z,19.65
2022-09-09T19:55:07.414Z,19.17
2022-09-09T19:57:37.169Z,18.75
2022-09-09T20:00:05.176Z,18.23
2022-09-09T20:02:40.312Z,18.20
2022-09-09T20:05:09.455Z,18.08
2022-09-09T20:07:37.841Z,16.88
2022-09-09T20:10:04.980Z,18.80
2022-09-09T20:12:34.479Z,18.67
2022-09-09T20:15:02.361Z,17.50
2022-09-09T20:17:29.447Z,17.75
2022-09-09T20:19:56.823Z,17.77
2022-09-09T20:22:23.652Z,17.42
2022-09-09T20:24:50.394Z,16.63
2022-09-09T20:27:18.300Z,17.45
2022-09-09T20:29:48.492Z,18.45
2022-09-09T20:32:15.333Z,18.48
2022-09-09T20:34:47.801Z,18.23
2022-09-09T20:37:15.227Z,18.55
2022-09-09T20:39:42.173Z,17.02
2022-09-09T20:42:09.080Z,17.83
2022-09-09T20:44:36.145Z,19.00
2022-09-09T20:47:06.642Z,17.52
2022-09-09T20:49:39.514Z,18.55
2022-09-09T20:52:09.509Z,18.15
2022-09-09T20:54:38.796Z,19.38
2022-09-09T20:57:08.361Z,18.80
2022-09-09T20:59:35.722Z,19.13
2022-09-09T21:02:03.636Z,20.00
2022-09-09T21:04:31.326Z,19.15
2022-09-09T21:06:58.223Z,17.58
2022-09-09T21:09:26.240Z,18.25
2022-09-09T21:11:53.830Z,19.70
2022-09-09T21:14:21.961Z,19.20
2022-09-09T21:16:49.626Z,18.48
2022-09-09T21:19:16.465Z,18.73
2022-09-09T21:21:46.744Z,17.30
2022-09-09T21:24:14.565Z,17.35
2022-09-09T21:26:41.392Z,16.92
2022-09-09T21:29:17.849Z,17.00
2022-09-09T21:31:44.647Z,17.42
2022-09-09T21:34:13.347Z,18.30
2022-09-09T21:36:47.598Z,17.23
2022-09-09T21:39:18.439Z,16.65
2022-09-09T21:41:48.844Z,17.20
2022-09-09T21:44:21.032Z,17.02
2022-09-09T21:46:53.978Z,17.25
2022-09-09T21:49:22.468Z,17.08
2022-09-09T21:51:52.485Z,16.63
2022-09-09T21:54:21.391Z,16.75
2022-09-09T21:56:52.775Z,17.25
2022-09-09T21:59:21.231Z,17.08
2022-09-09T22:01:56.192Z,16.33
2022-09-09T22:04:27.063Z,16.98
2022-09-09T22:06:57.991Z,16.33
2022-09-09T22:09:25.465Z,16.63
2022-09-09T22:11:53.583Z,16.08
2022-09-09T22:14:20.673Z,16.48
2022-09-09T22:16:47.507Z,16.70
2022-09-09T22:19:15.227Z,15.85
2022-09-09T22:21:42.110Z,16.10
2022-09-09T22:24:09.166Z,15.48
2022-09-09T22:26:38.471Z,15.23
2022-09-09T22:29:06.866Z,15.95
2022-09-09T22:31:38.673Z,16.17
2022-09-09T22:34:07.956Z,15.57
2022-09-09T22:36:36.956Z,15.38
2022-09-09T22:39:04.760Z,16.73
2022-09-09T22:41:32.479Z,17.38
2022-09-09T22:43:59.982Z,17.02
2022-09-09T22:46:28.908Z,16.95
2022-09-09T22:48:56.857Z,16.48
2022-09-09T22:51:23.799Z,16.98
2022-09-09T22:53:50.570Z,16.08
2022-09-09T22:56:20.562Z,15.75
2022-09-09T22:58:52.342Z,16.92
2022-09-09T23:01:21.023Z,15.52
2022-09-09T23:03:49.386Z,15.18
2022-09-09T23:06:22.570Z,14.52
2022-09-09T23:08:52.034Z,13.77
2022-09-09T23:11:21.396Z,13.40
2022-09-09T23:13:52.639Z,13.05
2022-09-09T23:16:27.642Z,12.90
2022-09-09T23:18:57.597Z,12.80
2022-09-09T23:21:26.345Z,12.45
2022-09-09T23:23:56.532Z,13.18
2022-09-09T23:26:26.516Z,12.80
2022-09-09T23:29:07.182Z,12.68
2022-09-09T23:31:38.535Z,13.13
2022-09-09T23:34:10.422Z,13.30
2022-09-09T23:36:39.437Z,13.40
2022-09-09T23:39:10.765Z,13.32
2022-09-09T23:41:38.137Z,13.10
2022-09-09T23:44:05.526Z,13.07
2022-09-09T23:46:35.418Z,12.82
2022-09-09T23:49:03.761Z,12.23
2022-09-09T23:51:33.967Z,12.80
2022-09-09T23:54:04.744Z,12.43
2022-09-09T23:56:37.758Z,12.93
2022-09-09T23:59:08.151Z,13.05
